aviador You're here:

KAID Decoded Metar

ANDERSON MUNICIP in IN, USA
Report Time2018-07-20 08:55:00
UTC Time2018-07-20 09:02:12
Flight Rules vfr VFR
Wind170° at 07 kt
W.Decomp.*RWY 18: 6.9 kt HW 0.9 kt LCW
RWY 12: 4.2 kt HW 5.6 kt RCW
W.Rank170° ranks 8
Current wind is below 170° avg. (9.1)
Visibility9999 m
Phenomena:N/A
Clouds:Scattered 050 Hf
Broken 075 Hf
Overcast 100 Hf
Expected CloudBase > 1,200 ft AGL from Temp-Dew spread
Ceiling7,500 ft
Temp20°C (ISA +7)
Dew Point17°C (83% RH)
AAT19.9°C
QNH1012 hPa
Density Alt2,011 ft
Elevation919 ft
Report Wrong Elevation
Raw Report
KAID 200855Z AUTO 17007KT 10SM SCT050 BKN075 OVC100 20/17 A2987
RMK AO2 P0006 60006 T02000170=

Extra information for KAID:More info

Metar Taf Metar & Taf Last 4 Metars F.Rules Stats Wind Profile Meteogram Temp Stats Airport Information Weather charts Add Link Nearby VenuesMetar ALERT Operation Metar Decoded Social comments

AIRNAV info for KAID